Wuustwezel, Belgium
Current Conditions -  °F | °C
As of 7:25 PM on Wednesday 26 Nov 2014 (Local Time) from EHWO Reporting Station
Haze Haze  
Wind Chill:   Ceiling: 200
Heat Index:   Visibility: 1.3mi
Dew Point:   Wind: 5mph
Humidity: 100%   Direction: 100°E
Pressure: 29.85"   Gusts: NA
Location:  51.39°N, 4.6°E
Report Text: EHWO 261825Z AUTO 10004KT 2200 BR BKN002 OVC004 06/06 Q1011 AMB
Loading
Personal Weather Stations






























Interactive Weather Map New forecast layout! Learn more

10-Day Weather Forecast

Advertisements
Track Severe Weather on mobile